Time;durP1;ratioP1;P1;durP2;ratioP2;P2;SDS_P1;SDS_P2;PMS_P1;PMS_P2;Temp;Humidity;BMP_temperature;BMP_pressure;BME280_temperature;BME280_humidity;BME280_pressure;Samples;Min_cycle;Max_cycle;Signal;HPM_P1;HPM_P2
2022/09/02 00:01:02;;;;;;;7.37;4.60;;;;;;;6.90;78.28;100397.66;1686530;84;20955;-59
2022/09/02 00:03:33;;;;;;;6.92;4.60;;;;;;;6.90;78.40;100405.89;1666067;85;20998;-59
2022/09/02 00:06:02;;;;;;;7.20;5.28;;;;;;;6.90;78.43;100397.66;1698229;83;21609;-60
2022/09/02 00:08:30;;;;;;;10.13;5.62;;;;;;;6.90;78.46;100402.84;1694849;84;21008;-59
2022/09/02 00:10:59;;;;;;;7.75;5.40;;;;;;;6.91;78.57;100401.95;1703112;82;20883;-59
2022/09/02 00:13:28;;;;;;;7.00;4.60;;;;;;;6.88;78.55;100409.80;1671931;84;20911;-59
2022/09/02 00:15:55;;;;;;;7.42;5.28;;;;;;;6.88;78.70;100404.61;1673915;85;21520;-60
2022/09/02 00:18:23;;;;;;;6.08;4.45;;;;;;;6.89;78.83;100403.74;1692107;84;24848;-60
2022/09/02 00:20:50;;;;;;;6.62;4.10;;;;;;;6.88;78.85;100402.02;1695233;84;20942;-59
2022/09/02 00:23:17;;;;;;;6.05;3.95;;;;;;;6.83;78.74;100400.40;1669815;84;20920;-59
2022/09/02 00:25:45;;;;;;;6.25;4.20;;;;;;;6.76;78.74;100403.58;1683814;84;21053;-60
2022/09/02 00:28:13;;;;;;;6.60;4.97;;;;;;;6.67;78.73;100406.37;1697136;84;21033;-60
2022/09/02 00:30:41;;;;;;;12.53;4.40;;;;;;;6.61;78.77;100406.05;1701286;82;22452;-59
2022/09/02 00:33:09;;;;;;;6.70;5.00;;;;;;;6.59;78.96;100404.38;1693064;83;21534;-60
2022/09/02 00:35:36;;;;;;;6.75;4.78;;;;;;;6.63;79.08;100400.81;1682660;84;20982;-60
2022/09/02 00:38:04;;;;;;;6.22;4.70;;;;;;;6.64;79.18;100405.98;1694039;84;21518;-59
2022/09/02 00:40:32;;;;;;;;;;;;;;;6.69;79.31;100408.05;1700257;83;20955;-60
2022/09/02 00:42:58;;;;;;;;;;;;;;;6.73;79.48;100395.86;1705495;84;21208;-60
2022/09/02 00:45:25;;;;;;;8.13;5.33;;;;;;;6.72;79.47;100400.20;1684257;84;20112;-60
2022/09/02 00:47:51;;;;;;;8.90;5.78;;;;;;;6.74;79.55;100400.15;1676416;84;20939;-60
2022/09/02 00:50:23;;;;;;;9.18;5.35;;;;;;;6.77;79.49;100397.94;1699055;82;21033;-60
2022/09/02 00:52:58;;;;;;;10.32;6.37;;;;;;;6.78;79.50;100396.63;1694064;83;21371;-60
2022/09/02 00:55:33;;;;;;;9.70;6.90;;;;;;;6.79;79.61;100397.02;1667848;84;21067;-59
2022/09/02 00:58:08;;;;;;;12.53;6.67;;;;;;;6.81;79.64;100392.66;1657735;84;20961;-60
2022/09/02 01:00:41;;;;;;;11.57;7.60;;;;;;;6.81;79.68;100391.81;1697787;83;20950;-60
2022/09/02 01:03:12;;;;;;;10.18;7.33;;;;;;;6.79;79.67;100389.23;1702692;83;21505;-59
2022/09/02 01:05:44;;;;;;;13.85;7.65;;;;;;;6.76;79.63;100394.49;1699812;83;20993;-59
2022/09/02 01:08:15;;;;;;;11.20;7.55;;;;;;;6.72;79.69;100394.13;1632148;85;22257;-59
2022/09/02 01:10:43;;;;;;;11.55;8.65;;;;;;;6.72;79.94;100388.94;1663955;85;20993;-59
2022/09/02 01:13:15;;;;;;;12.63;8.63;;;;;;;6.75;80.05;100389.32;1652492;85;21484;-60
2022/09/02 01:15:47;;;;;;;12.80;8.18;;;;;;;6.78;80.11;100392.73;1640199;85;20935;-59
2022/09/02 01:18:21;;;;;;;8.53;6.42;;;;;;;6.79;80.13;100385.34;1653373;85;20961;-60
2022/09/02 01:20:47;;;;;;;10.23;7.10;;;;;;;6.80;80.18;100390.94;1651191;85;21478;-60
2022/09/02 01:23:16;;;;;;;13.13;6.65;;;;;;;6.82;80.23;100393.06;1701498;83;20973;-60
2022/09/02 01:25:43;;;;;;;12.18;6.15;;;;;;;6.84;80.24;100391.75;1709304;82;20964;-59
2022/09/02 01:28:14;;;;;;;7.00;5.28;;;;;;;6.84;80.27;100388.70;1695979;82;20970;-59
2022/09/02 01:30:47;;;;;;;10.98;5.22;;;;;;;6.85;80.22;100390.40;1700473;83;20998;-59
2022/09/02 01:33:14;;;;;;;9.85;4.75;;;;;;;6.81;80.19;100393.96;1675056;83;21891;-59
2022/09/02 01:35:40;;;;;;;11.05;6.30;;;;;;;6.75;80.16;100389.32;1700955;83;21387;-59
2022/09/02 01:38:07;;;;;;;9.83;6.70;;;;;;;6.70;80.24;100396.78;1696886;83;20914;-59
2022/09/02 01:40:35;;;;;;;10.82;6.00;;;;;;;6.68;80.46;100393.80;1700263;83;20961;-59
2022/09/02 01:43:07;;;;;;;7.72;5.60;;;;;;;6.67;80.58;100394.70;1697169;83;21523;-60
2022/09/02 01:45:36;;;;;;;10.50;5.72;;;;;;;6.64;80.63;100392.16;1697694;83;21031;-60
2022/09/02 01:48:04;;;;;;;10.50;5.78;;;;;;;6.64;80.74;100389.57;1693363;83;20955;-60
2022/09/02 01:50:31;;;;;;;6.75;5.05;;;;;;;6.64;80.77;100392.16;1709465;82;20945;-60
2022/09/02 01:53:02;;;;;;;6.67;4.28;;;;;;;6.62;80.77;100388.73;1648254;85;21529;-59
2022/09/02 01:55:29;;;;;;;6.80;4.37;;;;;;;6.58;80.77;100392.27;1654360;85;20958;-60
2022/09/02 01:57:56;;;;;;;5.70;3.90;;;;;;;6.55;80.90;100395.77;1643995;86;21126;-60
2022/09/02 02:00:24;;;;;;;5.47;3.25;;;;;;;6.53;80.97;100394.13;1647389;84;20911;-59
2022/09/02 02:02:51;;;;;;;3.95;2.77;;;;;;;6.52;81.10;100400.17;1696508;83;20911;-59
2022/09/02 02:05:18;;;;;;;8.60;3.30;;;;;;;6.59;81.46;100396.59;1682960;83;20941;-60
2022/09/02 02:07:45;;;;;;;5.15;2.60;;;;;;;6.65;81.53;100396.45;1691280;84;21765;-59
2022/09/02 02:10:16;;;;;;;4.63;3.47;;;;;;;6.68;81.51;100393.34;1695973;83;21043;-60
2022/09/02 02:12:42;;;;;;;4.87;3.45;;;;;;;6.72;81.52;100392.83;1708139;82;20934;-60
2022/09/02 02:15:14;;;;;;;5.33;3.40;;;;;;;6.69;81.33;100398.97;1692492;84;21071;-60
2022/09/02 02:17:41;;;;;;;6.10;3.40;;;;;;;6.67;81.28;100390.80;1695117;84;22332;-60
2022/09/02 02:20:10;;;;;;;5.75;3.12;;;;;;;6.64;81.29;100383.08;1717427;82;20930;-60
2022/09/02 02:22:38;;;;;;;7.00;3.10;;;;;;;6.62;81.34;100383.55;1698855;84;21172;-60
2022/09/02 02:25:07;;;;;;;4.33;2.98;;;;;;;6.60;81.33;100382.72;1707033;83;21455;-60
2022/09/02 02:27:34;;;;;;;3.98;2.62;;;;;;;6.57;81.41;100380.19;1709566;82;20970;-60
2022/09/02 02:30:01;;;;;;;4.25;2.87;;;;;;;6.53;81.38;100384.59;1711939;83;20913;-59
2022/09/02 02:32:28;;;;;;;7.10;3.62;;;;;;;6.49;81.45;100391.56;1714362;83;20923;-60
2022/09/02 02:34:55;;;;;;;3.60;2.67;;;;;;;6.46;81.48;100386.44;1718106;83;21113;-59
2022/09/02 02:37:21;;;;;;;5.00;3.75;;;;;;;6.43;81.49;100386.50;1707387;83;21017;-60
2022/09/02 02:39:48;;;;;;;6.07;3.00;;;;;;;6.41;81.53;100384.40;1691341;83;20966;-60
2022/09/02 02:42:16;;;;;;;6.20;3.65;;;;;;;6.39;81.53;100391.80;1697724;83;20928;-60
2022/09/02 02:44:43;;;;;;;5.97;3.27;;;;;;;6.36;81.56;100389.23;1702345;83;21057;-59
2022/09/02 02:47:10;;;;;;;5.28;4.03;;;;;;;6.33;81.56;100388.88;1697253;83;21102;-60
2022/09/02 02:49:39;;;;;;;5.55;3.60;;;;;;;6.28;81.70;100385.52;1697244;83;20922;-59
2022/09/02 02:52:12;;;;;;;7.58;3.50;;;;;;;6.26;81.78;100384.23;1696683;83;20871;-60
2022/09/02 02:54:39;;;;;;;7.15;2.90;;;;;;;6.23;81.78;100380.84;1712036;82;20926;-60
2022/09/02 02:57:07;;;;;;;;;;;;;;;6.21;81.71;100381.31;1718822;83;20914;-59
2022/09/02 02:59:35;;;;;;;4.65;3.30;;;;;;;6.15;81.76;100382.73;1686170;84;21050;-59
2022/09/02 03:02:03;;;;;;;5.40;2.90;;;;;;;6.09;81.80;100385.44;1686931;83;20970;-60
2022/09/02 03:04:30;;;;;;;6.58;2.95;;;;;;;6.07;81.98;100387.20;1693749;84;20950;-59
2022/09/02 03:06:57;;;;;;;5.13;3.07;;;;;;;6.06;82.10;100386.34;1706983;83;20946;-59
2022/09/02 03:09:23;;;;;;;4.15;2.67;;;;;;;6.09;81.97;100383.70;1685303;84;21604;-59
2022/09/02 03:11:50;;;;;;;4.77;2.77;;;;;;;6.03;81.86;100385.96;1697107;84;21115;-60
2022/09/02 03:14:18;;;;;;;3.63;2.97;;;;;;;5.95;81.78;100389.13;1696096;83;20946;-59
2022/09/02 03:16:44;;;;;;;;;;;;;;;5.87;81.87;100384.93;1695378;83;20974;-60
2022/09/02 03:19:12;;;;;;;10.05;2.80;;;;;;;5.82;82.07;100391.47;1692945;83;20453;-60
2022/09/02 03:21:40;;;;;;;5.00;2.60;;;;;;;5.80;82.13;100379.01;1692593;83;20946;-59
2022/09/02 03:24:09;;;;;;;5.55;2.42;;;;;;;5.78;82.21;100374.28;1691453;83;21044;-60
2022/09/02 03:26:35;;;;;;;4.90;2.72;;;;;;;5.76;82.24;100376.04;1697456;83;21437;-59
2022/09/02 03:29:03;;;;;;;3.93;2.67;;;;;;;5.74;82.33;100381.68;1696835;83;20920;-60
2022/09/02 03:31:30;;;;;;;5.10;2.80;;;;;;;5.67;82.25;100382.68;1697136;83;20868;-60
2022/09/02 03:33:57;;;;;;;6.55;2.40;;;;;;;5.62;82.32;100378.86;1695904;83;20930;-60
2022/09/02 03:36:32;;;;;;;10.48;3.05;;;;;;;5.59;82.39;100386.23;1697046;84;21123;-60
2022/09/02 03:39:00;;;;;;;6.12;2.92;;;;;;;5.58;82.43;100387.13;1699154;83;20990;-60
2022/09/02 03:41:27;;;;;;;3.70;2.50;;;;;;;5.59;82.59;100386.69;1683631;84;20860;-60
2022/09/02 03:43:54;;;;;;;5.20;3.12;;;;;;;5.58;82.59;100384.54;1688238;83;20998;-59
2022/09/02 03:46:20;;;;;;;4.90;2.53;;;;;;;5.56;82.53;100390.17;1697267;83;21473;-59
2022/09/02 03:48:50;;;;;;;4.12;2.65;;;;;;;5.54;82.51;100389.78;1701255;83;21500;-60
2022/09/02 03:51:17;;;;;;;4.15;2.30;;;;;;;5.52;82.71;100389.83;1700769;83;21503;-60
2022/09/02 03:53:44;;;;;;;4.65;2.30;;;;;;;5.53;82.74;100389.37;1673390;84;21448;-60
2022/09/02 03:56:13;;;;;;;5.80;2.77;;;;;;;5.53;82.77;100391.52;1702661;83;20966;-60
2022/09/02 03:58:41;;;;;;;6.58;3.22;;;;;;;5.56;82.87;100390.63;1703730;83;20878;-60
2022/09/02 04:01:14;;;;;;;6.65;2.90;;;;;;;5.57;82.85;100388.02;1697217;83;21037;-60
2022/09/02 04:03:41;;;;;;;11.40;2.95;;;;;;;5.59;82.92;100393.16;1703506;83;20966;-60
2022/09/02 04:06:11;;;;;;;9.43;3.02;;;;;;;5.63;82.92;100396.55;1693406;82;21041;-60
2022/09/02 04:08:41;;;;;;;5.30;2.35;;;;;;;5.63;82.91;100395.25;1705886;83;20895;-59
2022/09/02 04:11:10;;;;;;;7.08;2.17;;;;;;;5.62;82.98;100399.58;1687227;84;20998;-60
2022/09/02 04:13:37;;;;;;;3.58;2.37;;;;;;;5.60;82.84;100403.52;1691661;83;21045;-60
2022/09/02 04:16:13;;;;;;;5.55;2.30;;;;;;;5.54;82.80;100408.77;1703077;83;20994;-60
2022/09/02 04:18:40;;;;;;;3.72;2.45;;;;;;;5.54;82.97;100406.17;1707798;83;22053;-59
2022/09/02 04:21:08;;;;;;;4.33;2.83;;;;;;;5.55;83.01;100404.47;1709164;83;20947;-59
2022/09/02 04:23:35;;;;;;;4.53;2.60;;;;;;;5.55;83.07;100405.31;1702031;83;20958;-60
2022/09/02 04:26:15;;;;;;;5.62;2.15;;;;;;;5.58;83.14;100405.27;1692010;84;21094;-60
2022/09/02 04:28:42;;;;;;;11.80;2.30;;;;;;;5.63;83.26;100410.80;1691405;83;21001;-60
2022/09/02 04:31:12;;;;;;;2.53;1.83;;;;;;;5.70;83.33;100409.83;1676406;84;21715;-60
2022/09/02 04:33:39;;;;;;;5.50;1.77;;;;;;;5.74;83.32;100412.77;1686879;84;20919;-59
2022/09/02 04:36:10;;;;;;;3.42;1.50;;;;;;;5.79;83.38;100413.56;1704919;83;20955;-60
2022/09/02 04:38:36;;;;;;;3.22;1.85;;;;;;;5.82;83.33;100410.91;1699110;83;21014;-60
2022/09/02 04:41:10;;;;;;;3.17;1.62;;;;;;;5.85;83.42;100413.45;1685907;83;21041;-60
2022/09/02 04:43:37;;;;;;;11.57;2.37;;;;;;;5.89;83.33;100419.46;1705467;82;21567;-60
2022/09/02 04:46:09;;;;;;;4.92;1.70;;;;;;;5.90;83.39;100409.05;1710895;83;21555;-60
2022/09/02 04:48:37;;;;;;;3.08;1.80;;;;;;;5.94;83.38;100421.13;1691708;84;20989;-60
2022/09/02 04:51:09;;;;;;;4.53;2.02;;;;;;;6.01;83.64;100420.12;1695454;83;21043;-61
2022/09/02 04:53:38;;;;;;;3.10;2.15;;;;;;;7.14;85.37;100421.36;1688970;83;20915;-61
2022/09/02 04:56:08;;;;;;;4.62;2.80;;;;;;;8.18;85.26;100410.22;1689514;84;21463;-62
2022/09/02 04:58:36;;;;;;;6.58;3.02;;;;;;;9.64;84.91;100412.88;1704780;83;20922;-60
2022/09/02 05:01:13;;;;;;;15.40;5.10;;;;;;;10.92;84.43;100404.09;1689011;83;20899;-61
2022/09/02 05:03:40;;;;;;;;;;;;;;;11.99;83.37;100403.36;1684289;84;21134;-60
2022/09/02 05:06:11;;;;;;;12.47;4.80;;;;;;;12.82;82.21;100391.84;1684718;84;20150;-61
2022/09/02 05:08:41;;;;;;;9.35;3.55;;;;;;;13.63;82.32;100394.10;1689323;84;20965;-61
2022/09/02 05:11:12;;;;;;;5.45;2.80;;;;;;;14.74;82.40;100391.09;1661331;85;21008;-61
2022/09/02 05:13:40;;;;;;;6.25;3.50;;;;;;;15.40;81.62;100396.20;1666485;85;21030;-62
2022/09/02 05:16:07;;;;;;;9.53;3.70;;;;;;;16.43;81.97;100386.70;1654128;86;20998;-62
2022/09/02 05:18:34;;;;;;;9.33;4.17;;;;;;;17.26;80.92;100376.27;1665786;85;20938;-62
2022/09/02 05:21:06;;;;;;;5.17;2.72;;;;;;;17.38;79.17;100380.74;1665194;84;28126;-62
2022/09/02 05:23:33;;;;;;;10.58;3.02;;;;;;;17.62;79.42;100377.82;1660833;85;21021;-62
2022/09/02 05:26:06;;;;;;;3.90;2.30;;;;;;;17.85;78.56;100379.44;1642626;85;21034;-62
2022/09/02 05:28:33;;;;;;;3.62;1.95;;;;;;;18.00;78.21;100375.73;1680604;84;21923;-62
2022/09/02 05:31:07;;;;;;;4.67;2.05;;;;;;;17.99;77.49;100371.42;1684993;84;21720;-62
2022/09/02 05:33:39;;;;;;;3.92;2.10;;;;;;;18.10;77.55;100375.50;1661387;85;21003;-62
2022/09/02 05:36:11;;;;;;;4.78;2.02;;;;;;;18.37;77.63;100375.02;1660031;85;21485;-62
2022/09/02 05:38:42;;;;;;;2.95;2.15;;;;;;;18.81;77.81;100373.73;1656300;85;21102;-62
2022/09/02 05:41:17;;;;;;;4.28;1.98;;;;;;;19.12;77.63;100372.37;1662059;84;21112;-62
2022/09/02 05:43:44;;;;;;;5.28;1.80;;;;;;;19.45;77.67;100375.19;1690068;84;20974;-62
2022/09/02 05:46:19;;;;;;;3.85;1.65;;;;;;;19.98;77.74;100376.63;1651084;85;20967;-62
2022/09/02 05:49:05;;;;;;;3.33;1.82;;;;;;;20.28;76.47;100373.43;1658305;85;20926;-62
2022/09/02 05:51:52;;;;;;;3.55;1.60;;;;;;;20.40;76.00;100376.93;1668062;84;20934;-62
2022/09/02 05:54:24;;;;;;;8.10;1.67;;;;;;;20.66;76.17;100378.39;1661631;84;21228;-62
2022/09/02 05:56:54;;;;;;;6.62;1.47;;;;;;;21.11;75.31;100378.34;1659987;85;20967;-62
2022/09/02 05:59:23;;;;;;;5.75;1.92;;;;;;;21.23;74.41;100372.05;1676685;84;21027;-62
2022/09/02 06:01:50;;;;;;;5.97;1.60;;;;;;;21.55;74.21;100373.89;1665195;84;20974;-63
2022/09/02 06:04:17;;;;;;;4.40;1.77;;;;;;;21.66;74.22;100373.84;1691655;83;21516;-63
2022/09/02 06:06:44;;;;;;;8.48;1.75;;;;;;;21.83;73.24;100378.23;1698979;83;21309;-63
2022/09/02 06:09:14;;;;;;;2.90;1.55;;;;;;;21.82;72.56;100375.23;1703196;83;20887;-62
2022/09/02 06:11:48;;;;;;;3.37;1.35;;;;;;;21.66;72.41;100373.84;1697519;83;21039;-62
2022/09/02 06:14:21;;;;;;;2.45;1.30;;;;;;;21.85;72.30;100378.95;1668503;84;21097;-62
2022/09/02 06:16:53;;;;;;;1.77;1.27;;;;;;;22.06;72.21;100379.78;1672909;85;21465;-63
2022/09/02 06:19:21;;;;;;;1.72;1.15;;;;;;;22.42;72.34;100389.61;1718205;83;21069;-64
2022/09/02 06:21:48;;;;;;;2.30;1.00;;;;;;;22.81;72.19;100381.79;1685787;83;20911;-63
2022/09/02 06:24:15;;;;;;;1.25;0.90;;;;;;;23.20;72.17;100379.25;1691127;84;20895;-63
2022/09/02 06:26:42;;;;;;;3.27;1.20;;;;;;;23.45;70.96;100373.39;1698729;83;21534;-63
2022/09/02 06:29:10;;;;;;;5.35;0.90;;;;;;;23.88;71.06;100374.80;1699425;83;20961;-63
2022/09/02 06:31:40;;;;;;;3.90;0.98;;;;;;;23.93;69.90;100377.05;1697343;84;21101;-62
2022/09/02 06:34:07;;;;;;;5.00;1.00;;;;;;;23.75;68.55;100382.27;1697048;83;20930;-64
2022/09/02 06:36:34;;;;;;;4.42;1.00;;;;;;;23.63;68.67;100378.02;1693839;83;20919;-64
2022/09/02 06:39:01;;;;;;;4.78;0.90;;;;;;;23.63;68.20;100378.84;1687197;83;21456;-64
2022/09/02 06:41:30;;;;;;;6.15;1.00;;;;;;;23.88;68.57;100376.63;1690036;83;20927;-63
2022/09/02 06:44:00;;;;;;;3.62;0.90;;;;;;;23.88;67.60;100377.45;1700901;83;21057;-63
2022/09/02 06:46:36;;;;;;;2.02;0.60;;;;;;;23.94;67.10;100380.55;1697414;83;20938;-63
2022/09/02 06:49:05;;;;;;;2.85;1.37;;;;;;;23.68;66.16;100387.77;1697366;83;20958;-63
2022/09/02 06:51:37;;;;;;;6.72;1.60;;;;;;;23.37;65.67;100391.89;1695820;83;20934;-63
2022/09/02 06:54:07;;;;;;;5.05;1.40;;;;;;;23.16;65.67;100383.16;1692917;83;20999;-63
2022/09/02 06:56:34;;;;;;;6.87;1.80;;;;;;;22.97;64.44;100383.98;1695165;83;21868;-62
2022/09/02 06:59:02;;;;;;;12.43;2.00;;;;;;;22.51;64.44;100378.16;1699402;83;20936;-62
2022/09/02 07:01:32;;;;;;;3.77;1.27;;;;;;;22.55;64.40;100384.92;1685864;83;20970;-63
2022/09/02 07:06:49;;;;;;;2.02;0.90;;;;;;;22.44;63.74;100386.83;1702298;83;21005;-63
2022/09/02 07:09:29;;;;;;;4.10;1.30;;;;;;;22.33;63.41;100384.59;1695191;83;21519;-63
2022/09/02 07:11:52;;;;;;;3.87;0.90;;;;;;;22.20;63.25;100392.43;1698617;83;20954;-62
2022/09/02 07:14:19;;;;;;;;;;;;;;;21.88;62.62;100387.51;1703331;83;20934;-62
2022/09/02 07:16:50;;;;;;;1.00;0.40;;;;;;;21.53;62.00;100386.45;1700035;83;20440;-62
2022/09/02 07:19:19;;;;;;;1.65;0.50;;;;;;;20.86;62.41;100389.24;1699573;83;20975;-61
2022/09/02 07:21:48;;;;;;;3.62;0.40;;;;;;;20.63;62.82;100393.23;1697900;83;21886;-62
2022/09/02 07:24:16;;;;;;;0.60;0.40;;;;;;;20.02;60.29;100397.45;1689959;84;20938;-63
2022/09/02 07:26:43;;;;;;;1.00;0.40;;;;;;;19.45;61.25;100399.03;1684176;84;21926;-63
2022/09/02 07:29:11;;;;;;;1.15;0.60;;;;;;;19.22;62.07;100399.87;1666483;85;20962;-64
2022/09/02 07:31:42;;;;;;;1.60;0.65;;;;;;;19.11;61.44;100401.12;1705390;83;21017;-63
2022/09/02 07:34:10;;;;;;;2.15;0.42;;;;;;;18.75;61.08;100406.76;1715494;82;21867;-63
2022/09/02 07:36:37;;;;;;;0.40;0.23;;;;;;;18.62;61.67;100405.89;1712526;83;20941;-62
2022/09/02 07:39:08;;;;;;;0.62;0.30;;;;;;;18.60;61.64;100397.20;1707014;83;20934;-62
2022/09/02 07:41:35;;;;;;;0.93;0.40;;;;;;;18.47;61.41;100403.36;1687230;83;20946;-63
2022/09/02 07:44:04;;;;;;;0.55;0.33;;;;;;;18.56;61.73;100402.71;1694834;83;20981;-63
2022/09/02 07:46:31;;;;;;;1.57;0.50;;;;;;;18.52;60.58;100402.57;1700711;83;21064;-62
2022/09/02 07:49:06;;;;;;;1.42;0.40;;;;;;;18.53;61.54;100398.96;1706992;83;21046;-62
2022/09/02 07:51:34;;;;;;;0.80;0.37;;;;;;;18.54;60.83;100400.67;1686967;83;20968;-62
2022/09/02 07:54:03;;;;;;;0.40;0.30;;;;;;;18.53;61.10;100411.34;1687499;83;21022;-62
2022/09/02 07:56:30;;;;;;;1.55;0.30;;;;;;;18.29;59.11;100399.36;1690576;84;20959;-62
2022/09/02 07:58:56;;;;;;;0.50;0.37;;;;;;;18.03;59.49;100403.27;1687503;84;21496;-62
2022/09/02 08:01:24;;;;;;;1.07;0.50;;;;;;;17.93;60.26;100403.55;1714889;82;20974;-62
2022/09/02 08:03:51;;;;;;;0.50;0.33;;;;;;;18.09;60.88;100406.85;1705085;82;21536;-62
2022/09/02 08:06:19;;;;;;;;;;;;;;;18.01;59.76;100402.55;1698855;83;20929;-62
2022/09/02 08:08:46;;;;;;;0.85;0.30;;;;;;;18.14;60.31;100403.03;1685209;83;20094;-62
2022/09/02 08:11:13;;;;;;;0.82;0.35;;;;;;;17.98;58.82;100401.45;1681292;83;21870;-62
2022/09/02 08:13:40;;;;;;;0.75;0.40;;;;;;;17.46;59.28;100404.85;1684619;83;20887;-62
2022/09/02 08:16:07;;;;;;;1.40;0.30;;;;;;;17.56;60.50;100408.59;1682892;84;21488;-62
2022/09/02 08:18:33;;;;;;;;;;;;;;;18.07;60.95;100410.06;1686860;83;20942;-62
2022/09/02 08:21:01;;;;;;;1.10;0.57;;;;;;;18.50;59.24;100411.08;1682975;83;20080;-62
2022/09/02 08:23:27;;;;;;;1.05;0.50;;;;;;;18.31;59.74;100411.49;1683140;83;21042;-62
2022/09/02 08:25:54;;;;;;;0.50;0.30;;;;;;;18.17;58.93;100414.72;1681982;85;21452;-62
2022/09/02 08:28:21;;;;;;;0.55;0.30;;;;;;;18.01;59.16;100417.09;1682562;83;20946;-62
2022/09/02 08:30:47;;;;;;;0.80;0.60;;;;;;;18.25;59.85;100408.44;1665299;84;20931;-63
2022/09/02 08:33:14;;;;;;;0.30;0.15;;;;;;;18.63;60.30;100412.89;1681450;83;21503;-62
2022/09/02 08:35:41;;;;;;;1.05;0.30;;;;;;;18.22;56.71;100419.22;1679516;83;21045;-62
2022/09/02 08:38:07;;;;;;;1.30;0.37;;;;;;;17.76;57.73;100417.00;1682754;83;20883;-63
2022/09/02 08:40:40;;;;;;;0.85;0.42;;;;;;;17.34;58.22;100411.78;1679482;85;20962;-62
2022/09/02 08:43:25;;;;;;;1.00;0.30;;;;;;;17.08;58.40;100412.10;1678789;83;20949;-62
2022/09/02 08:45:53;;;;;;;0.72;0.50;;;;;;;16.88;58.71;100413.84;1679854;83;21575;-62
2022/09/02 08:48:37;;;;;;;0.50;0.40;;;;;;;16.56;58.81;100417.97;1684034;83;22385;-61
2022/09/02 08:51:12;;;;;;;5.05;0.62;;;;;;;16.42;59.03;100420.59;1680232;84;20997;-62
2022/09/02 08:54:05;;;;;;;1.07;0.50;;;;;;;16.31;59.18;100418.12;1677685;84;20991;-61
2022/09/02 08:56:31;;;;;;;1.52;0.60;;;;;;;16.37;59.67;100418.70;1678402;84;21575;-61
2022/09/02 08:59:01;;;;;;;1.10;0.60;;;;;;;16.41;59.78;100425.47;1659441;84;20997;-61
2022/09/02 09:02:03;;;;;;;0.75;0.50;;;;;;;16.54;60.12;100422.00;1677752;84;21089;-60
2022/09/02 09:05:05;;;;;;;1.40;0.57;;;;;;;16.86;60.42;100420.98;1687682;83;20934;-61
2022/09/02 09:07:54;;;;;;;0.68;0.45;;;;;;;17.22;60.26;100426.61;1693656;82;21109;-62
2022/09/02 09:10:47;;;;;;;0.65;0.40;;;;;;;17.23;59.99;100415.09;1693156;82;21559;-60
2022/09/02 09:13:41;;;;;;;1.30;0.62;;;;;;;17.10;59.84;100416.81;1674874;84;21008;-60
2022/09/02 09:16:25;;;;;;;1.10;0.50;;;;;;;17.05;60.13;100420.21;1696730;83;21099;-61
2022/09/02 09:19:12;;;;;;;1.37;0.50;;;;;;;16.99;59.94;100413.53;1700726;83;20938;-60
2022/09/02 09:21:41;;;;;;;1.52;0.70;;;;;;;16.97;60.14;100423.80;1623072;85;20940;-60
2022/09/02 09:24:31;;;;;;;1.50;0.50;;;;;;;16.94;60.17;100413.45;1648099;85;21497;-61
2022/09/02 09:26:58;;;;;;;2.40;0.45;;;;;;;17.03;60.33;100415.97;1656990;86;20946;-61
2022/09/02 09:29:25;;;;;;;0.95;0.53;;;;;;;17.08;60.18;100418.70;1637217;87;21094;-61
2022/09/02 09:31:59;;;;;;;;;;;;;;;17.12;60.15;100420.22;1624559;86;20970;-61
2022/09/02 09:34:56;;;;;;;1.75;0.62;;;;;;;17.17;60.31;100419.45;1647501;85;20227;-61
2022/09/02 09:37:38;;;;;;;1.02;0.57;;;;;;;17.11;60.00;100418.53;1597811;88;21608;-61
2022/09/02 09:40:22;;;;;;;1.52;0.50;;;;;;;16.84;59.77;100414.98;1599284;88;20985;-62
2022/09/02 09:43:11;;;;;;;0.65;0.50;;;;;;;16.76;60.57;100416.30;1599829;88;21216;-60
2022/09/02 09:45:45;;;;;;;1.45;0.70;;;;;;;16.74;59.99;100419.94;1598180;88;21783;-61
2022/09/02 09:48:18;;;;;;;0.40;0.40;;;;;;;16.56;60.58;100420.60;1572458;89;21483;-62
2022/09/02 09:50:57;;;;;;;3.30;0.40;;;;;;;16.50;60.62;100427.09;1579984;89;20941;-61
2022/09/02 09:53:31;;;;;;;0.60;0.40;;;;;;;16.49;60.81;100420.59;1603117;88;21000;-61
2022/09/02 09:56:20;;;;;;;0.70;0.30;;;;;;;16.51;60.89;100421.34;1598758;88;21039;-61
2022/09/02 09:58:49;;;;;;;0.95;0.40;;;;;;;16.57;60.90;100422.29;1615712;86;21033;-61
2022/09/02 10:01:31;;;;;;;0.70;0.30;;;;;;;16.55;61.08;100417.57;1633785;85;21510;-61
2022/09/02 10:04:11;;;;;;;0.85;0.40;;;;;;;16.57;61.13;100415.70;1608329;88;22033;-61
2022/09/02 10:06:42;;;;;;;0.40;0.40;;;;;;;16.70;61.13;100419.28;1608049;89;21580;-61
2022/09/02 10:09:32;;;;;;;0.98;0.40;;;;;;;16.94;61.34;100424.00;1616121;86;21227;-61
2022/09/02 10:12:06;;;;;;;0.60;0.40;;;;;;;17.26;60.95;100423.77;1610916;88;20970;-61
2022/09/02 10:14:46;;;;;;;1.20;0.35;;;;;;;17.42;61.04;100423.14;1683244;84;21477;-61
2022/09/02 10:17:40;;;;;;;0.40;0.33;;;;;;;17.55;60.98;100416.13;1684526;84;20985;-62
2022/09/02 10:20:50;;;;;;;0.60;0.30;;;;;;;17.66;60.82;100418.91;1689640;84;20974;-61
2022/09/02 10:24:03;;;;;;;0.42;0.20;;;;;;;18.04;61.30;100408.95;1659878;85;21073;-62
2022/09/02 10:26:47;;;;;;;0.55;0.10;;;;;;;18.17;60.25;100409.43;1633650;86;20903;-62
2022/09/02 10:29:53;;;;;;;0.70;0.20;;;;;;;18.11;58.67;100411.53;1658815;85;21006;-62
2022/09/02 10:32:51;;;;;;;2.33;0.50;;;;;;;17.90;59.24;100409.03;1655434;85;20930;-62
2022/09/02 10:35:43;;;;;;;0.90;0.28;;;;;;;18.01;59.93;100406.52;1650430;85;20986;-62
2022/09/02 10:38:31;;;;;;;0.95;0.47;;;;;;;18.37;60.18;100397.00;1652667;85;20996;-62
2022/09/02 10:41:21;;;;;;;0.62;0.28;;;;;;;18.76;60.39;100403.14;1653230;85;21044;-62
2022/09/02 10:44:20;;;;;;;0.17;0.17;;;;;;;18.81;59.59;100408.97;1625796;85;20905;-61
2022/09/02 10:46:55;;;;;;;0.93;0.33;;;;;;;18.51;59.07;100417.20;1627774;87;20914;-62
2022/09/02 10:49:45;;;;;;;0.30;0.10;;;;;;;18.28;59.16;100412.19;1650390;85;21535;-62
2022/09/02 10:52:37;;;;;;;0.75;0.30;;;;;;;18.00;58.48;100415.38;1646846;85;21049;-62
2022/09/02 10:55:41;;;;;;;0.30;0.20;;;;;;;17.73;58.71;100411.89;1626484;87;21021;-62
2022/09/02 10:58:08;;;;;;;1.75;0.37;;;;;;;17.61;59.12;100413.08;1627361;85;21072;-62
2022/09/02 11:00:39;;;;;;;0.20;0.20;;;;;;;17.68;59.31;100415.70;1650818;85;21547;-62
2022/09/02 11:03:24;;;;;;;0.42;0.30;;;;;;;18.06;59.41;100411.47;1693267;83;21515;-62
2022/09/02 11:06:08;;;;;;;0.35;0.30;;;;;;;18.49;59.56;100412.05;1673106;84;21374;-62
2022/09/02 11:08:58;;;;;;;0.40;0.20;;;;;;;18.92;59.12;100410.37;1706027;82;20942;-62
2022/09/02 11:11:47;;;;;;;2.47;0.37;;;;;;;19.17;58.93;100404.65;1688901;84;20900;-61
2022/09/02 11:14:25;;;;;;;0.65;0.45;;;;;;;19.19;58.52;100408.04;1690749;83;21865;-61
2022/09/02 11:17:15;;;;;;;0.42;0.20;;;;;;;18.82;57.64;100410.67;1688734;84;21544;-62
2022/09/02 11:20:13;;;;;;;0.17;0.17;;;;;;;18.38;57.63;100402.69;1712067;83;21073;-61
2022/09/02 11:23:22;;;;;;;0.30;0.20;;;;;;;18.01;57.62;100414.45;1721469;83;20903;-61
2022/09/02 11:26:06;;;;;;;0.40;0.10;;;;;;;17.72;57.60;100408.41;1710911;83;20954;-61
2022/09/02 11:28:47;;;;;;;0.55;0.30;;;;;;;17.59;58.03;100405.75;1696405;83;21554;-62
2022/09/02 11:31:19;;;;;;;0.55;0.20;;;;;;;17.87;58.38;100405.28;1608201;88;20981;-61
2022/09/02 11:34:03;;;;;;;0.70;0.30;;;;;;;18.28;57.88;100396.33;1613242;88;21063;-61
2022/09/02 11:36:30;;;;;;;0.30;0.30;;;;;;;18.65;58.32;100399.06;1612297;88;21421;-62
2022/09/02 11:39:23;;;;;;;0.40;0.20;;;;;;;19.25;58.46;100391.70;1611757;88;21087;-62
2022/09/02 11:42:18;;;;;;;0.53;0.20;;;;;;;19.69;58.26;100388.95;1607755;88;20941;-62
2022/09/02 11:45:02;;;;;;;1.05;0.30;;;;;;;20.08;57.02;100390.84;1608491;87;20961;-61
2022/09/02 11:48:10;;;;;;;0.40;0.20;;;;;;;20.02;56.98;100400.59;1608833;87;21137;-62
2022/09/02 11:51:18;;;;;;;0.20;0.20;;;;;;;19.61;56.40;100398.75;1609041;88;21011;-62
2022/09/02 11:53:46;;;;;;;0.60;0.20;;;;;;;19.22;56.54;100397.23;1598278;88;21559;-61
2022/09/02 11:56:30;;;;;;;0.30;0.30;;;;;;;19.00;56.32;100395.28;1617497;86;21179;-62
2022/09/02 11:58:57;;;;;;;0.50;0.20;;;;;;;18.95;56.32;100392.11;1608401;88;21523;-62